createdAt,value
2022-12-09T00:02:06.175Z,23.77
2022-12-09T00:04:33.936Z,24.75
2022-12-09T00:07:00.823Z,21.98
2022-12-09T00:09:27.477Z,22.75
2022-12-09T00:11:54.275Z,23.17
2022-12-09T00:14:20.949Z,24.63
2022-12-09T00:16:47.804Z,24.20
2022-12-09T00:19:14.496Z,24.25
2022-12-09T00:21:42.533Z,22.05
2022-12-09T00:24:12.376Z,20.08
2022-12-09T00:26:39.489Z,21.27
2022-12-09T00:29:06.376Z,21.90
2022-12-09T00:31:35.581Z,21.05
2022-12-09T00:34:04.985Z,23.95
2022-12-09T00:36:31.844Z,24.27
2022-12-09T00:38:59.271Z,24.33
2022-12-09T00:41:27.044Z,22.80
2022-12-09T00:43:54.515Z,23.75
2022-12-09T00:46:21.316Z,24.05
2022-12-09T00:48:48.171Z,25.67
2022-12-09T00:51:17.548Z,24.02
2022-12-09T00:53:44.919Z,24.60
2022-12-09T00:56:11.641Z,26.15
2022-12-09T00:58:38.389Z,26.80
2022-12-09T01:01:05.409Z,24.25
2022-12-09T01:03:32.747Z,25.70
2022-12-09T01:06:00.356Z,24.80
2022-12-09T01:08:27.322Z,24.15
2022-12-09T01:10:54.140Z,24.30
2022-12-09T01:13:21.044Z,22.30
2022-12-09T01:15:47.808Z,23.90
2022-12-09T01:18:14.655Z,25.25
2022-12-09T01:20:41.596Z,23.98
2022-12-09T01:23:08.563Z,23.67
2022-12-09T01:25:35.412Z,25.35
2022-12-09T01:28:02.241Z,24.88
2022-12-09T01:30:31.572Z,23.77
2022-12-09T01:32:58.266Z,23.70
2022-12-09T01:35:25.576Z,23.52
2022-12-09T01:37:52.283Z,25.33
2022-12-09T01:40:19.696Z,25.58
2022-12-09T01:42:46.458Z,25.25
2022-12-09T01:45:22.378Z,26.30
2022-12-09T01:47:57.150Z,24.17
2022-12-09T01:50:25.838Z,24.98
2022-12-09T01:52:52.580Z,26.27
2022-12-09T01:55:19.681Z,28.55
2022-12-09T01:57:47.189Z,27.70
2022-12-09T02:00:15.071Z,28.48
2022-12-09T02:02:43.992Z,28.10
2022-12-09T02:07:38.315Z,27.70
2022-12-09T02:10:11.112Z,28.25
2022-12-09T02:12:47.244Z,32.33
2022-12-09T02:15:19.690Z,32.30
2022-12-09T02:17:55.791Z,35.30
2022-12-09T02:20:46.883Z,37.95
2022-12-09T02:23:16.517Z,40.72
2022-12-09T02:25:48.896Z,50.25
2022-12-09T02:28:24.606Z,51.92
2022-12-09T02:30:58.477Z,51.63
2022-12-09T02:34:00.541Z,51.20
2022-12-09T02:36:30.985Z,43.92
2022-12-09T02:38:58.337Z,44.67
2022-12-09T02:41:27.889Z,44.78
2022-12-09T02:43:59.752Z,40.78
2022-12-09T02:46:28.348Z,44.20
2022-12-09T02:48:57.320Z,37.25
2022-12-09T02:51:25.841Z,36.00
2022-12-09T02:53:54.281Z,40.38
2022-12-09T02:56:21.787Z,34.88
2022-12-09T02:58:49.277Z,31.27
2022-12-09T03:01:25.198Z,33.28
2022-12-09T03:03:54.213Z,33.88
2022-12-09T03:06:23.658Z,36.42
2022-12-09T03:11:24.442Z,35.70
2022-12-09T03:13:51.244Z,33.45
2022-12-09T03:16:23.511Z,32.95
2022-12-09T03:18:55.561Z,35.40
2022-12-09T03:21:24.583Z,33.78
2022-12-09T03:23:53.547Z,33.50
2022-12-09T03:26:20.665Z,33.60
2022-12-09T03:28:49.552Z,35.85
2022-12-09T03:31:19.899Z,36.90
2022-12-09T03:33:48.968Z,34.80
2022-12-09T03:36:17.536Z,34.13
2022-12-09T03:38:45.810Z,34.88
2022-12-09T03:41:24.354Z,33.72
2022-12-09T03:43:54.935Z,33.28
2022-12-09T03:46:22.289Z,31.33
2022-12-09T03:48:49.338Z,31.75
2022-12-09T03:51:28.652Z,31.75
2022-12-09T03:54:27.120Z,32.30
2022-12-09T03:56:57.136Z,33.10
2022-12-09T03:59:25.714Z,35.05
2022-12-09T04:01:52.986Z,34.80
2022-12-09T04:04:20.324Z,33.60
2022-12-09T04:06:48.205Z,36.85
2022-12-09T04:09:15.658Z,33.15
2022-12-09T04:11:42.446Z,31.25
2022-12-09T04:14:15.295Z,32.42
2022-12-09T04:16:42.721Z,29.40
2022-12-09T04:19:09.643Z,29.58
2022-12-09T04:21:36.670Z,29.98
2022-12-09T04:24:03.768Z,31.35
2022-12-09T04:26:30.558Z,28.38
2022-12-09T04:28:57.435Z,28.63
2022-12-09T04:31:24.413Z,29.90
2022-12-09T04:33:51.431Z,28.60
2022-12-09T04:36:19.810Z,28.50
2022-12-09T04:38:46.674Z,43.00
2022-12-09T04:41:14.058Z,27.88
2022-12-09T04:43:41.097Z,28.88
2022-12-09T04:46:11.935Z,30.95
2022-12-09T04:48:38.823Z,30.30
2022-12-09T04:51:07.925Z,31.42
2022-12-09T04:53:34.913Z,27.70
2022-12-09T04:56:04.304Z,26.20
2022-12-09T04:58:31.196Z,25.52
2022-12-09T05:00:58.162Z,24.23
2022-12-09T05:03:25.730Z,24.52
2022-12-09T05:05:53.302Z,23.02
2022-12-09T05:08:20.401Z,23.10
2022-12-09T05:10:49.758Z,23.83
2022-12-09T05:13:17.305Z,25.30
2022-12-09T05:15:44.396Z,41.65
2022-12-09T05:18:11.324Z,49.67
2022-12-09T05:20:39.520Z,47.17
2022-12-09T05:23:09.507Z,56.00
2022-12-09T05:25:37.288Z,53.63
2022-12-09T05:28:04.465Z,48.35
2022-12-09T05:30:31.246Z,44.78
2022-12-09T05:32:58.430Z,48.80
2022-12-09T05:35:25.574Z,49.63
2022-12-09T05:37:52.746Z,48.35
2022-12-09T05:40:19.478Z,38.92
2022-12-09T05:42:46.295Z,37.60
2022-12-09T05:45:13.173Z,38.80
2022-12-09T05:47:40.959Z,35.95
2022-12-09T05:50:09.039Z,38.10
2022-12-09T05:52:37.246Z,61.17
2022-12-09T05:55:06.293Z,71.78
2022-12-09T05:57:36.687Z,39.25
2022-12-09T06:00:06.789Z,50.50
2022-12-09T06:02:34.053Z,39.15
2022-12-09T06:05:01.233Z,42.72
2022-12-09T06:07:28.612Z,39.30
2022-12-09T06:09:55.632Z,36.55
2022-12-09T06:12:22.788Z,39.08
2022-12-09T06:14:49.891Z,34.53
2022-12-09T06:17:17.156Z,32.95
2022-12-09T06:19:44.046Z,34.72
2022-12-09T06:22:11.576Z,40.63
2022-12-09T06:24:38.331Z,42.15
2022-12-09T06:27:05.415Z,36.45
2022-12-09T06:29:32.728Z,35.65
2022-12-09T06:32:00.316Z,28.13
2022-12-09T06:34:28.439Z,31.60
2022-12-09T06:36:55.423Z,27.88
2022-12-09T06:39:22.294Z,26.55
2022-12-09T06:41:49.150Z,27.35
2022-12-09T06:44:23.252Z,25.65
2022-12-09T06:46:51.286Z,24.77
2022-12-09T06:49:18.439Z,24.08
2022-12-09T06:51:46.288Z,28.70
2022-12-09T06:54:13.476Z,31.40
2022-12-09T06:56:40.477Z,29.73
2022-12-09T06:59:09.274Z,30.63
2022-12-09T07:01:37.409Z,26.85
2022-12-09T07:04:05.788Z,25.30
2022-12-09T07:06:39.545Z,24.40
2022-12-09T07:09:13.000Z,27.92
2022-12-09T07:11:42.365Z,26.80
2022-12-09T07:14:10.150Z,26.88
2022-12-09T07:16:38.217Z,29.38
2022-12-09T07:19:06.125Z,28.65
2022-12-09T07:21:33.852Z,31.30
2022-12-09T07:24:02.117Z,31.80
2022-12-09T07:26:33.709Z,35.00
2022-12-09T07:29:05.248Z,34.28
2022-12-09T07:31:32.715Z,33.55
2022-12-09T07:34:00.171Z,34.63
2022-12-09T07:36:29.511Z,33.90
2022-12-09T07:39:02.338Z,33.72
2022-12-09T07:41:29.704Z,39.35
2022-12-09T07:43:56.639Z,33.13
2022-12-09T07:46:25.911Z,43.25
2022-12-09T07:48:53.631Z,33.05
2022-12-09T07:51:22.928Z,44.45
2022-12-09T07:53:50.290Z,33.15
2022-12-09T07:56:17.903Z,40.00
2022-12-09T07:58:47.813Z,33.78
2022-12-09T08:01:21.067Z,32.17
2022-12-09T08:03:49.535Z,25.63
2022-12-09T08:06:19.818Z,33.25
2022-12-09T08:08:47.586Z,22.92
2022-12-09T08:11:21.517Z,24.17
2022-12-09T08:13:49.049Z,21.55
2022-12-09T08:16:17.717Z,24.85
2022-12-09T08:18:45.026Z,30.00
2022-12-09T08:21:16.777Z,31.65
2022-12-09T08:23:44.130Z,35.58
2022-12-09T08:26:12.212Z,31.38
2022-12-09T08:28:39.627Z,28.23
2022-12-09T08:31:14.992Z,30.80
2022-12-09T08:33:42.487Z,28.90
2022-12-09T08:36:16.669Z,28.02
2022-12-09T08:38:44.240Z,27.27
2022-12-09T08:41:17.587Z,26.38
2022-12-09T08:43:45.608Z,16.75
2022-12-09T08:46:13.718Z,18.48
2022-12-09T08:48:42.452Z,16.73
2022-12-09T08:51:11.392Z,28.88
2022-12-09T08:56:12.957Z,23.17
2022-12-09T08:58:41.013Z,15.45
2022-12-09T09:01:08.172Z,14.93
2022-12-09T09:03:35.310Z,16.02
2022-12-09T09:06:09.626Z,13.85
2022-12-09T09:08:39.088Z,15.43
2022-12-09T09:11:25.073Z,13.93
2022-12-09T09:13:52.408Z,13.90
2022-12-09T09:16:21.763Z,14.10
2022-12-09T09:18:49.143Z,12.95
2022-12-09T09:21:17.627Z,13.23
2022-12-09T09:23:44.754Z,13.15
2022-12-09T09:26:15.911Z,12.73
2022-12-09T09:28:43.278Z,13.50
2022-12-09T09:31:13.489Z,13.52
2022-12-09T09:33:41.011Z,19.00
2022-12-09T09:36:11.346Z,17.85
2022-12-09T09:38:38.478Z,20.98
2022-12-09T09:41:32.564Z,19.35
2022-12-09T09:43:59.962Z,16.92
2022-12-09T09:46:36.057Z,17.55
2022-12-09T09:49:05.862Z,20.67
2022-12-09T09:51:34.391Z,20.13
2022-12-09T09:54:06.769Z,20.73
2022-12-09T09:56:41.113Z,22.10
2022-12-09T09:59:19.512Z,21.60
2022-12-09T10:01:53.364Z,21.13
2022-12-09T10:04:44.509Z,23.20
2022-12-09T10:07:32.476Z,22.45
2022-12-09T10:10:36.531Z,21.70
2022-12-09T10:13:20.886Z,22.05
2022-12-09T10:16:15.548Z,26.42
2022-12-09T10:19:09.870Z,17.58
2022-12-09T10:21:42.492Z,20.67
2022-12-09T10:24:40.208Z,28.60
2022-12-09T10:27:28.462Z,21.52
2022-12-09T10:30:22.465Z,18.73
2022-12-09T10:32:49.476Z,28.50
2022-12-09T10:35:18.750Z,20.55
2022-12-09T10:37:47.261Z,15.40
2022-12-09T10:40:23.239Z,14.98
2022-12-09T10:43:11.699Z,16.33
2022-12-09T10:48:46.565Z,20.40
2022-12-09T10:51:23.232Z,18.80
2022-12-09T10:54:21.860Z,19.13
2022-12-09T10:57:23.473Z,18.77
2022-12-09T11:00:04.474Z,17.23
2022-12-09T11:02:33.822Z,18.85
2022-12-09T11:07:51.269Z,17.38
2022-12-09T11:10:24.998Z,18.08
2022-12-09T11:13:07.121Z,18.50
2022-12-09T11:15:43.002Z,19.27
2022-12-09T11:18:23.068Z,19.48
2022-12-09T11:21:02.217Z,17.02
2022-12-09T11:23:30.086Z,19.70
2022-12-09T11:25:59.388Z,17.67
2022-12-09T11:28:31.960Z,16.85
2022-12-09T11:33:54.143Z,16.05
2022-12-09T11:36:29.875Z,15.43
2022-12-09T11:39:28.716Z,16.90
2022-12-09T11:42:17.020Z,17.10
2022-12-09T11:45:16.453Z,20.98
2022-12-09T11:50:34.774Z,17.75
2022-12-09T11:53:11.851Z,26.10
2022-12-09T11:55:45.370Z,17.98
2022-12-09T11:58:52.695Z,16.17
2022-12-09T12:01:24.960Z,17.23
2022-12-09T12:03:57.086Z,17.15
2022-12-09T12:06:44.821Z,15.45
2022-12-09T12:09:23.742Z,23.33
2022-12-09T12:12:09.867Z,20.30
2022-12-09T12:14:38.757Z,18.83
2022-12-09T12:17:32.153Z,16.23
2022-12-09T12:19:58.840Z,16.98
2022-12-09T12:22:44.209Z,17.05
2022-12-09T12:25:22.743Z,15.98
2022-12-09T12:28:20.146Z,14.73
2022-12-09T12:31:06.118Z,17.20
2022-12-09T12:34:16.226Z,18.77
2022-12-09T12:36:36.575Z,15.75
2022-12-09T12:39:32.139Z,13.80
2022-12-09T12:42:24.535Z,13.75
2022-12-09T12:45:39.999Z,15.82
2022-12-09T12:48:09.947Z,14.55
2022-12-09T12:51:01.536Z,13.40
2022-12-09T12:54:06.020Z,16.73
2022-12-09T12:56:40.571Z,17.33
2022-12-09T12:59:16.764Z,15.15
2022-12-09T13:02:08.466Z,11.90
2022-12-09T13:04:58.216Z,13.73
2022-12-09T13:07:37.002Z,13.25
2022-12-09T13:10:22.702Z,13.32
2022-12-09T13:12:54.140Z,14.02
2022-12-09T13:15:36.506Z,13.15
2022-12-09T13:18:13.501Z,13.35
2022-12-09T13:20:46.438Z,16.65
2022-12-09T13:23:24.292Z,15.27
2022-12-09T13:26:12.607Z,16.30
2022-12-09T13:28:56.508Z,17.58
2022-12-09T13:31:29.348Z,15.30
2022-12-09T13:33:59.034Z,13.93
2022-12-09T13:36:40.955Z,15.30
2022-12-09T13:39:30.342Z,20.10
2022-12-09T13:42:15.754Z,25.35
2022-12-09T13:44:42.438Z,21.23
2022-12-09T13:47:27.238Z,15.73
2022-12-09T13:50:06.321Z,14.43
2022-12-09T13:52:43.585Z,17.48
2022-12-09T13:55:30.375Z,17.90
2022-12-09T13:58:13.645Z,20.00
2022-12-09T14:00:42.585Z,19.25
2022-12-09T14:03:27.923Z,20.67
2022-12-09T14:05:57.242Z,25.02
2022-12-09T14:08:27.413Z,23.08
2022-12-09T14:10:54.198Z,22.60
2022-12-09T14:13:26.710Z,14.57
2022-12-09T14:16:28.455Z,27.50
2022-12-09T14:18:56.584Z,18.05
2022-12-09T14:21:23.314Z,30.95
2022-12-09T14:24:08.351Z,13.23
2022-12-09T14:26:59.411Z,15.40
2022-12-09T14:29:45.518Z,24.35
2022-12-09T14:32:22.908Z,16.83
2022-12-09T14:35:00.070Z,12.68
2022-12-09T14:37:51.419Z,16.35
2022-12-09T14:40:52.920Z,15.77
2022-12-09T14:43:37.510Z,13.65
2022-12-09T14:46:06.772Z,19.20
2022-12-09T14:48:36.472Z,15.57
2022-12-09T14:51:15.808Z,17.30
2022-12-09T14:53:43.136Z,16.33
2022-12-09T14:56:16.323Z,16.95
2022-12-09T14:58:49.677Z,20.17
2022-12-09T15:01:18.284Z,23.13
2022-12-09T15:03:57.230Z,19.25
2022-12-09T15:06:26.946Z,19.98
2022-12-09T15:08:56.138Z,17.75
2022-12-09T15:13:53.942Z,17.70
2022-12-09T15:16:24.410Z,20.13
2022-12-09T15:18:52.226Z,17.95
2022-12-09T15:21:30.361Z,18.05
2022-12-09T15:23:58.744Z,17.33
2022-12-09T15:26:29.092Z,16.83
2022-12-09T15:28:57.386Z,22.77
2022-12-09T15:31:27.056Z,17.02
2022-12-09T15:33:56.837Z,26.45
2022-12-09T15:36:30.722Z,19.75
2022-12-09T15:39:03.478Z,23.77
2022-12-09T15:41:53.861Z,29.58
2022-12-09T15:44:22.062Z,26.83
2022-12-09T15:46:50.982Z,36.22
2022-12-09T15:49:27.411Z,33.13
2022-12-09T15:51:55.987Z,31.77
2022-12-09T15:54:26.359Z,33.30
2022-12-09T15:56:58.793Z,31.50
2022-12-09T15:59:28.455Z,28.42
2022-12-09T16:01:57.305Z,28.65
2022-12-09T16:04:30.909Z,28.45
2022-12-09T16:07:05.291Z,25.95
2022-12-09T16:09:32.076Z,31.02
2022-12-09T16:11:58.793Z,26.13
2022-12-09T16:14:25.911Z,27.05
2022-12-09T16:17:01.560Z,25.95
2022-12-09T16:19:31.349Z,22.98
2022-12-09T16:22:04.101Z,27.50
2022-12-09T16:24:51.089Z,29.10
2022-12-09T16:27:22.383Z,27.95
2022-12-09T16:30:05.351Z,29.70
2022-12-09T16:32:34.410Z,29.77
2022-12-09T16:35:10.210Z,23.63
2022-12-09T16:37:42.926Z,27.95
2022-12-09T16:40:21.964Z,29.90
2022-12-09T16:42:50.034Z,32.20
2022-12-09T16:45:22.840Z,29.98
2022-12-09T16:47:56.925Z,27.98
2022-12-09T16:50:28.141Z,29.38
2022-12-09T16:52:54.848Z,26.95
2022-12-09T16:55:23.855Z,30.30
2022-12-09T16:57:51.086Z,31.45
2022-12-09T17:00:18.739Z,27.60
2022-12-09T17:03:07.351Z,24.55
2022-12-09T17:05:34.059Z,25.23
2022-12-09T17:08:00.838Z,29.65
2022-12-09T17:10:27.499Z,32.30
2022-12-09T17:12:54.319Z,25.33
2022-12-09T17:15:21.424Z,27.13
2022-12-09T17:17:49.092Z,30.27
2022-12-09T17:20:16.368Z,27.80
2022-12-09T17:22:43.134Z,26.20
2022-12-09T17:25:10.451Z,28.48
2022-12-09T17:27:37.543Z,30.02
2022-12-09T17:30:05.381Z,30.63
2022-12-09T17:32:32.102Z,27.45
2022-12-09T17:34:58.751Z,22.08
2022-12-09T17:37:25.494Z,18.95
2022-12-09T17:39:56.906Z,23.58
2022-12-09T17:42:28.383Z,25.27
2022-12-09T17:44:55.119Z,23.02
2022-12-09T17:47:21.814Z,27.65
2022-12-09T17:49:48.491Z,28.60
2022-12-09T17:52:15.188Z,29.48
2022-12-09T17:54:41.863Z,24.27
2022-12-09T17:57:08.535Z,24.83
2022-12-09T17:59:35.249Z,26.73
2022-12-09T18:02:03.751Z,26.20
2022-12-09T18:04:31.643Z,26.52
2022-12-09T18:06:58.450Z,23.35
2022-12-09T18:09:25.133Z,23.85
2022-12-09T18:11:51.960Z,27.48
2022-12-09T18:14:19.304Z,23.80
2022-12-09T18:16:46.646Z,23.65
2022-12-09T18:19:18.226Z,25.10
2022-12-09T18:21:45.487Z,27.77
2022-12-09T18:24:12.434Z,30.05
2022-12-09T18:26:41.998Z,28.00
2022-12-09T18:29:10.071Z,23.85
2022-12-09T18:31:36.823Z,24.67
2022-12-09T18:34:03.595Z,27.60
2022-12-09T18:36:30.365Z,26.98
2022-12-09T18:38:58.194Z,23.50
2022-12-09T18:41:29.480Z,26.08
2022-12-09T18:43:59.447Z,23.98
2022-12-09T18:46:31.586Z,25.30
2022-12-09T18:49:00.291Z,28.98
2022-12-09T18:51:27.961Z,22.63
2022-12-09T18:53:54.994Z,21.08
2022-12-09T18:56:21.689Z,22.63
2022-12-09T19:01:39.441Z,26.75
2022-12-09T19:04:08.877Z,28.40
2022-12-09T19:06:38.091Z,25.15
2022-12-09T19:09:07.219Z,25.98
2022-12-09T19:11:36.063Z,23.17
2022-12-09T19:14:04.625Z,27.10
2022-12-09T19:16:31.538Z,25.17
2022-12-09T19:19:03.818Z,25.92
2022-12-09T19:21:34.220Z,27.88
2022-12-09T19:24:00.929Z,26.63
2022-12-09T19:26:32.073Z,28.38
2022-12-09T19:29:01.864Z,33.60
2022-12-09T19:31:35.703Z,27.98
2022-12-09T19:34:04.588Z,28.83
2022-12-09T19:36:33.963Z,27.45
2022-12-09T19:39:01.682Z,29.48
2022-12-09T19:41:28.567Z,28.85
2022-12-09T19:43:59.011Z,29.98
2022-12-09T19:46:26.669Z,31.40
2022-12-09T19:48:54.072Z,28.63
2022-12-09T19:51:21.773Z,28.15
2022-12-09T19:54:07.288Z,20.85
2022-12-09T19:56:34.061Z,23.35
2022-12-09T19:59:00.721Z,25.58
2022-12-09T20:01:30.593Z,35.53
2022-12-09T20:04:19.135Z,32.00
2022-12-09T20:06:50.968Z,28.58
2022-12-09T20:09:24.425Z,29.45
2022-12-09T20:11:52.905Z,27.95
2022-12-09T20:14:19.773Z,35.40
2022-12-09T20:16:46.509Z,27.48
2022-12-09T20:19:13.176Z,26.98
2022-12-09T20:21:40.604Z,28.17
2022-12-09T20:24:09.598Z,24.67
2022-12-09T20:26:37.843Z,26.73
2022-12-09T20:29:07.576Z,27.73
2022-12-09T20:31:35.974Z,29.17
2022-12-09T20:34:05.743Z,28.13
2022-12-09T20:36:34.210Z,28.95
2022-12-09T20:39:04.134Z,28.77
2022-12-09T20:41:30.798Z,29.02
2022-12-09T20:43:59.164Z,29.58
2022-12-09T20:46:30.913Z,30.27
2022-12-09T20:48:58.118Z,29.75
2022-12-09T20:51:28.694Z,29.63
2022-12-09T20:53:55.884Z,26.67
2022-12-09T20:56:24.060Z,31.63
2022-12-09T20:58:53.647Z,27.35
2022-12-09T21:01:24.183Z,29.92
2022-12-09T21:03:51.826Z,26.45
2022-12-09T21:06:20.662Z,26.13
2022-12-09T21:08:47.347Z,23.70
2022-12-09T21:11:20.799Z,24.55
2022-12-09T21:13:54.103Z,23.20
2022-12-09T21:16:32.074Z,22.70
2022-12-09T21:19:02.029Z,24.80
2022-12-09T21:21:30.902Z,26.08
2022-12-09T21:23:57.835Z,27.02
2022-12-09T21:26:25.233Z,23.13
2022-12-09T21:28:52.570Z,21.00
2022-12-09T21:31:19.577Z,22.92
2022-12-09T21:33:48.047Z,20.15
2022-12-09T21:36:19.906Z,20.63
2022-12-09T21:38:46.591Z,20.65
2022-12-09T21:41:16.282Z,22.70
2022-12-09T21:43:43.695Z,21.80
2022-12-09T21:46:15.865Z,20.80
2022-12-09T21:48:42.639Z,20.15
2022-12-09T21:51:10.516Z,14.80
2022-12-09T21:53:37.754Z,21.85
2022-12-09T21:56:09.671Z,20.33
2022-12-09T21:58:36.383Z,16.75
2022-12-09T22:01:13.049Z,21.23
2022-12-09T22:03:39.881Z,16.73
2022-12-09T22:06:07.667Z,18.27
2022-12-09T22:08:35.593Z,18.90
2022-12-09T22:11:09.353Z,18.33
2022-12-09T22:13:39.266Z,16.60
2022-12-09T22:16:11.166Z,15.75
2022-12-09T22:18:38.152Z,16.27
2022-12-09T22:23:54.772Z,17.80
2022-12-09T22:26:22.078Z,16.65
2022-12-09T22:28:48.956Z,18.55
2022-12-09T22:31:21.515Z,17.45
2022-12-09T22:33:49.605Z,17.80
2022-12-09T22:36:17.095Z,15.90
2022-12-09T22:38:44.100Z,16.77
2022-12-09T22:41:13.376Z,16.88
2022-12-09T22:43:40.758Z,18.50
2022-12-09T22:46:10.511Z,16.23
2022-12-09T22:48:37.782Z,16.55
2022-12-09T22:51:16.007Z,15.35
2022-12-09T22:53:43.354Z,14.90
2022-12-09T22:56:11.491Z,15.70
2022-12-09T22:58:38.205Z,18.73
2022-12-09T23:01:12.203Z,22.48
2022-12-09T23:03:39.204Z,17.67
2022-12-09T23:06:06.291Z,14.98
2022-12-09T23:08:33.266Z,16.63
2022-12-09T23:11:04.513Z,17.67
2022-12-09T23:13:33.892Z,16.88
2022-12-09T23:16:05.444Z,18.08
2022-12-09T23:18:33.703Z,15.80
2022-12-09T23:21:04.790Z,16.27
2022-12-09T23:23:32.145Z,16.08
2022-12-09T23:26:13.732Z,17.65
2022-12-09T23:28:42.742Z,15.20
2022-12-09T23:31:11.079Z,17.55
2022-12-09T23:33:38.993Z,15.90
2022-12-09T23:36:10.941Z,15.50
2022-12-09T23:38:38.045Z,16.55
2022-12-09T23:41:05.147Z,15.00
2022-12-09T23:43:33.544Z,15.52
2022-12-09T23:46:14.889Z,16.40
2022-12-09T23:48:42.836Z,16.58
2022-12-09T23:51:15.690Z,17.23
2022-12-09T23:53:44.047Z,18.02
2022-12-09T23:56:12.627Z,16.80
2022-12-09T23:58:39.819Z,15.73
